sensor_id;sensor_type;location;lat;lon;timestamp;temperature;humidity
8820;DHT22;4446;50.876;4.736;2023-12-20T00:02:00;5.70;99.90
8820;DHT22;4446;50.876;4.736;2023-12-20T00:04:28;5.80;99.90
8820;DHT22;4446;50.876;4.736;2023-12-20T00:06:55;5.70;99.90
8820;DHT22;4446;50.876;4.736;2023-12-20T00:09:22;5.70;99.90
8820;DHT22;4446;50.876;4.736;2023-12-20T00:11:49;5.70;99.90
8820;DHT22;4446;50.876;4.736;2023-12-20T00:14:17;5.60;99.90
8820;DHT22;4446;50.876;4.736;2023-12-20T00:16:44;5.60;99.90
8820;DHT22;4446;50.876;4.736;2023-12-20T00:19:11;5.60;99.90
8820;DHT22;4446;50.876;4.736;2023-12-20T00:21:38;5.60;99.90
8820;DHT22;4446;50.876;4.736;2023-12-20T00:24:05;5.60;99.90
8820;DHT22;4446;50.876;4.736;2023-12-20T00:26:32;5.60;99.90
8820;DHT22;4446;50.876;4.736;2023-12-20T00:28:59;5.60;99.90
8820;DHT22;4446;50.876;4.736;2023-12-20T00:31:28;5.70;99.90
8820;DHT22;4446;50.876;4.736;2023-12-20T00:33:55;5.80;99.90
8820;DHT22;4446;50.876;4.736;2023-12-20T00:36:22;5.80;99.90
8820;DHT22;4446;50.876;4.736;2023-12-20T00:38:49;5.90;99.90
8820;DHT22;4446;50.876;4.736;2023-12-20T00:41:17;5.80;99.90
8820;DHT22;4446;50.876;4.736;2023-12-20T00:43:44;5.80;99.90
8820;DHT22;4446;50.876;4.736;2023-12-20T00:46:11;5.70;99.90
8820;DHT22;4446;50.876;4.736;2023-12-20T00:48:39;5.70;99.90
8820;DHT22;4446;50.876;4.736;2023-12-20T00:51:07;5.60;99.90
8820;DHT22;4446;50.876;4.736;2023-12-20T00:53:35;5.70;99.90
8820;DHT22;4446;50.876;4.736;2023-12-20T00:56:02;5.60;99.90
8820;DHT22;4446;50.876;4.736;2023-12-20T00:58:29;5.60;99.90
8820;DHT22;4446;50.876;4.736;2023-12-20T01:00:56;5.70;99.90
8820;DHT22;4446;50.876;4.736;2023-12-20T01:03:24;5.70;99.90
8820;DHT22;4446;50.876;4.736;2023-12-20T01:05:52;5.60;99.90
8820;DHT22;4446;50.876;4.736;2023-12-20T01:08:19;5.60;99.90
8820;DHT22;4446;50.876;4.736;2023-12-20T01:10:46;5.50;99.90
8820;DHT22;4446;50.876;4.736;2023-12-20T01:13:13;5.50;99.90
8820;DHT22;4446;50.876;4.736;2023-12-20T01:15:40;5.50;99.90
8820;DHT22;4446;50.876;4.736;2023-12-20T01:18:07;5.40;99.90
8820;DHT22;4446;50.876;4.736;2023-12-20T01:20:34;5.40;99.90
8820;DHT22;4446;50.876;4.736;2023-12-20T01:23:03;5.30;99.90
8820;DHT22;4446;50.876;4.736;2023-12-20T01:25:30;5.40;99.90
8820;DHT22;4446;50.876;4.736;2023-12-20T01:27:57;5.30;99.90
8820;DHT22;4446;50.876;4.736;2023-12-20T01:30:24;5.30;99.90
8820;DHT22;4446;50.876;4.736;2023-12-20T01:32:51;5.30;99.90
8820;DHT22;4446;50.876;4.736;2023-12-20T01:35:18;5.20;99.90
8820;DHT22;4446;50.876;4.736;2023-12-20T01:37:45;5.30;99.90
8820;DHT22;4446;50.876;4.736;2023-12-20T01:40:14;5.20;99.90
8820;DHT22;4446;50.876;4.736;2023-12-20T01:42:41;5.20;99.90
8820;DHT22;4446;50.876;4.736;2023-12-20T01:45:09;5.20;99.90
8820;DHT22;4446;50.876;4.736;2023-12-20T01:47:36;5.10;99.90
8820;DHT22;4446;50.876;4.736;2023-12-20T01:50:04;5.20;99.90
8820;DHT22;4446;50.876;4.736;2023-12-20T01:52:34;5.20;99.90
8820;DHT22;4446;50.876;4.736;2023-12-20T01:55:02;5.20;99.90
8820;DHT22;4446;50.876;4.736;2023-12-20T01:57:33;5.20;99.90
8820;DHT22;4446;50.876;4.736;2023-12-20T02:00:00;5.30;99.90
8820;DHT22;4446;50.876;4.736;2023-12-20T02:02:29;5.20;99.90
8820;DHT22;4446;50.876;4.736;2023-12-20T02:04:57;5.10;99.90
8820;DHT22;4446;50.876;4.736;2023-12-20T02:07:24;5.10;99.90
8820;DHT22;4446;50.876;4.736;2023-12-20T02:09:52;5.00;99.90
8820;DHT22;4446;50.876;4.736;2023-12-20T02:12:19;5.00;99.90
8820;DHT22;4446;50.876;4.736;2023-12-20T02:14:48;5.00;99.90
8820;DHT22;4446;50.876;4.736;2023-12-20T02:17:15;5.00;99.90
8820;DHT22;4446;50.876;4.736;2023-12-20T02:19:43;5.00;99.90
8820;DHT22;4446;50.876;4.736;2023-12-20T02:22:12;5.00;99.90
8820;DHT22;4446;50.876;4.736;2023-12-20T02:24:39;4.90;99.90
8820;DHT22;4446;50.876;4.736;2023-12-20T02:27:07;4.90;99.90
8820;DHT22;4446;50.876;4.736;2023-12-20T02:29:34;4.80;99.90
8820;DHT22;4446;50.876;4.736;2023-12-20T02:32:02;4.70;99.90
8820;DHT22;4446;50.876;4.736;2023-12-20T02:34:29;4.80;99.90
8820;DHT22;4446;50.876;4.736;2023-12-20T02:36:57;4.80;99.90
8820;DHT22;4446;50.876;4.736;2023-12-20T02:39:25;4.70;99.90
8820;DHT22;4446;50.876;4.736;2023-12-20T02:41:52;4.70;99.90
8820;DHT22;4446;50.876;4.736;2023-12-20T02:44:19;4.80;99.90
8820;DHT22;4446;50.876;4.736;2023-12-20T02:46:46;4.90;99.90
8820;DHT22;4446;50.876;4.736;2023-12-20T02:49:13;4.90;99.90
8820;DHT22;4446;50.876;4.736;2023-12-20T02:51:40;5.00;99.90
8820;DHT22;4446;50.876;4.736;2023-12-20T02:54:07;5.10;99.90
8820;DHT22;4446;50.876;4.736;2023-12-20T02:56:36;5.30;99.90
8820;DHT22;4446;50.876;4.736;2023-12-20T02:59:03;5.30;99.90
8820;DHT22;4446;50.876;4.736;2023-12-20T03:01:31;5.30;99.90
8820;DHT22;4446;50.876;4.736;2023-12-20T03:03:58;5.40;99.90
8820;DHT22;4446;50.876;4.736;2023-12-20T03:06:26;5.40;99.90
8820;DHT22;4446;50.876;4.736;2023-12-20T03:08:53;5.40;99.90
8820;DHT22;4446;50.876;4.736;2023-12-20T03:11:20;5.40;99.90
8820;DHT22;4446;50.876;4.736;2023-12-20T03:13:48;5.40;99.90
8820;DHT22;4446;50.876;4.736;2023-12-20T03:16:15;5.40;99.90
8820;DHT22;4446;50.876;4.736;2023-12-20T03:18:42;5.30;99.90
8820;DHT22;4446;50.876;4.736;2023-12-20T03:21:09;5.30;99.90
8820;DHT22;4446;50.876;4.736;2023-12-20T03:23:36;5.30;99.90
8820;DHT22;4446;50.876;4.736;2023-12-20T03:26:07;5.30;99.90
8820;DHT22;4446;50.876;4.736;2023-12-20T03:28:34;5.20;99.90
8820;DHT22;4446;50.876;4.736;2023-12-20T03:31:04;5.20;99.90
8820;DHT22;4446;50.876;4.736;2023-12-20T03:33:31;5.20;99.90
8820;DHT22;4446;50.876;4.736;2023-12-20T03:35:58;5.20;99.90
8820;DHT22;4446;50.876;4.736;2023-12-20T03:38:25;5.30;99.90
8820;DHT22;4446;50.876;4.736;2023-12-20T03:40:52;5.40;99.90
8820;DHT22;4446;50.876;4.736;2023-12-20T03:43:19;5.40;99.90
8820;DHT22;4446;50.876;4.736;2023-12-20T03:45:46;5.50;99.90
8820;DHT22;4446;50.876;4.736;2023-12-20T03:48:14;5.50;99.90
8820;DHT22;4446;50.876;4.736;2023-12-20T03:50:41;5.50;99.90
8820;DHT22;4446;50.876;4.736;2023-12-20T03:53:08;5.50;99.90
8820;DHT22;4446;50.876;4.736;2023-12-20T03:55:36;5.50;99.90
8820;DHT22;4446;50.876;4.736;2023-12-20T03:58:03;5.50;99.90
8820;DHT22;4446;50.876;4.736;2023-12-20T04:00:30;5.40;99.90
8820;DHT22;4446;50.876;4.736;2023-12-20T04:02:57;5.40;99.90
8820;DHT22;4446;50.876;4.736;2023-12-20T04:05:25;5.30;99.90
8820;DHT22;4446;50.876;4.736;2023-12-20T04:07:53;5.40;99.90
8820;DHT22;4446;50.876;4.736;2023-12-20T04:10:20;5.30;99.90
8820;DHT22;4446;50.876;4.736;2023-12-20T04:12:47;5.40;99.90
8820;DHT22;4446;50.876;4.736;2023-12-20T04:15:14;5.40;99.90
8820;DHT22;4446;50.876;4.736;2023-12-20T04:17:41;5.40;99.90
8820;DHT22;4446;50.876;4.736;2023-12-20T04:20:08;5.40;99.90
8820;DHT22;4446;50.876;4.736;2023-12-20T04:22:37;5.50;99.90
8820;DHT22;4446;50.876;4.736;2023-12-20T04:25:04;5.40;99.90
8820;DHT22;4446;50.876;4.736;2023-12-20T04:27:31;5.40;99.90
8820;DHT22;4446;50.876;4.736;2023-12-20T04:29:58;5.30;99.90
8820;DHT22;4446;50.876;4.736;2023-12-20T04:32:25;5.30;99.90
8820;DHT22;4446;50.876;4.736;2023-12-20T04:34:52;5.30;99.90
8820;DHT22;4446;50.876;4.736;2023-12-20T04:37:19;5.30;99.90
8820;DHT22;4446;50.876;4.736;2023-12-20T04:39:48;5.40;99.90
8820;DHT22;4446;50.876;4.736;2023-12-20T04:42:15;5.30;99.90
8820;DHT22;4446;50.876;4.736;2023-12-20T04:44:42;5.30;99.90
8820;DHT22;4446;50.876;4.736;2023-12-20T04:47:10;5.30;99.90
8820;DHT22;4446;50.876;4.736;2023-12-20T04:49:37;5.30;99.90
8820;DHT22;4446;50.876;4.736;2023-12-20T04:52:04;5.30;99.90
8820;DHT22;4446;50.876;4.736;2023-12-20T04:54:32;5.30;99.90
8820;DHT22;4446;50.876;4.736;2023-12-20T04:57:00;5.30;99.90
8820;DHT22;4446;50.876;4.736;2023-12-20T04:59:27;5.30;99.90
8820;DHT22;4446;50.876;4.736;2023-12-20T05:01:54;5.30;99.90
8820;DHT22;4446;50.876;4.736;2023-12-20T05:04:21;5.30;99.90
8820;DHT22;4446;50.876;4.736;2023-12-20T05:06:48;5.30;99.90
8820;DHT22;4446;50.876;4.736;2023-12-20T05:09:16;5.30;99.90
8820;DHT22;4446;50.876;4.736;2023-12-20T05:11:43;5.20;99.90
8820;DHT22;4446;50.876;4.736;2023-12-20T05:14:11;5.30;99.90
8820;DHT22;4446;50.876;4.736;2023-12-20T05:16:38;5.30;99.90
8820;DHT22;4446;50.876;4.736;2023-12-20T05:19:05;5.20;99.90
8820;DHT22;4446;50.876;4.736;2023-12-20T05:21:33;5.10;99.90
8820;DHT22;4446;50.876;4.736;2023-12-20T05:23:59;5.10;99.90
8820;DHT22;4446;50.876;4.736;2023-12-20T05:26:26;5.20;99.90
8820;DHT22;4446;50.876;4.736;2023-12-20T05:28:55;5.20;99.90
8820;DHT22;4446;50.876;4.736;2023-12-20T05:31:23;5.10;99.90
8820;DHT22;4446;50.876;4.736;2023-12-20T05:33:50;5.10;99.90
8820;DHT22;4446;50.876;4.736;2023-12-20T05:36:18;5.00;99.90
8820;DHT22;4446;50.876;4.736;2023-12-20T05:38:45;5.00;99.90
8820;DHT22;4446;50.876;4.736;2023-12-20T05:41:12;5.00;99.90
8820;DHT22;4446;50.876;4.736;2023-12-20T05:43:40;5.00;99.90
8820;DHT22;4446;50.876;4.736;2023-12-20T05:46:07;5.00;99.90
8820;DHT22;4446;50.876;4.736;2023-12-20T05:48:37;5.00;99.90
8820;DHT22;4446;50.876;4.736;2023-12-20T05:51:05;5.10;99.90
8820;DHT22;4446;50.876;4.736;2023-12-20T05:53:32;5.10;99.90
8820;DHT22;4446;50.876;4.736;2023-12-20T05:55:59;5.10;99.90
8820;DHT22;4446;50.876;4.736;2023-12-20T05:58:26;5.10;99.90
8820;DHT22;4446;50.876;4.736;2023-12-20T06:00:54;5.00;99.90
8820;DHT22;4446;50.876;4.736;2023-12-20T06:03:21;5.10;99.90
8820;DHT22;4446;50.876;4.736;2023-12-20T06:05:50;5.00;99.90
8820;DHT22;4446;50.876;4.736;2023-12-20T06:08:17;5.00;99.90
8820;DHT22;4446;50.876;4.736;2023-12-20T06:10:44;5.00;99.90
8820;DHT22;4446;50.876;4.736;2023-12-20T06:13:11;5.10;99.90
8820;DHT22;4446;50.876;4.736;2023-12-20T06:15:39;5.00;99.90
8820;DHT22;4446;50.876;4.736;2023-12-20T06:18:07;5.10;99.90
8820;DHT22;4446;50.876;4.736;2023-12-20T06:20:34;5.10;99.90
8820;DHT22;4446;50.876;4.736;2023-12-20T06:23:02;5.20;99.90
8820;DHT22;4446;50.876;4.736;2023-12-20T06:25:29;5.20;99.90
8820;DHT22;4446;50.876;4.736;2023-12-20T06:27:56;5.30;99.90
8820;DHT22;4446;50.876;4.736;2023-12-20T06:30:23;5.20;99.90
8820;DHT22;4446;50.876;4.736;2023-12-20T06:32:51;5.30;99.90
8820;DHT22;4446;50.876;4.736;2023-12-20T06:35:18;5.20;99.90
8820;DHT22;4446;50.876;4.736;2023-12-20T06:37:45;5.20;99.90
8820;DHT22;4446;50.876;4.736;2023-12-20T06:40:14;5.30;99.90
8820;DHT22;4446;50.876;4.736;2023-12-20T06:42:41;5.30;99.90
8820;DHT22;4446;50.876;4.736;2023-12-20T06:45:09;5.30;99.90
8820;DHT22;4446;50.876;4.736;2023-12-20T06:47:36;5.30;99.90
8820;DHT22;4446;50.876;4.736;2023-12-20T06:50:04;5.30;99.90
8820;DHT22;4446;50.876;4.736;2023-12-20T06:52:31;5.30;99.90
8820;DHT22;4446;50.876;4.736;2023-12-20T06:54:58;5.30;99.90
8820;DHT22;4446;50.876;4.736;2023-12-20T06:57:26;5.20;99.90
8820;DHT22;4446;50.876;4.736;2023-12-20T06:59:53;5.20;99.90
8820;DHT22;4446;50.876;4.736;2023-12-20T07:02:20;5.20;99.90
8820;DHT22;4446;50.876;4.736;2023-12-20T07:04:48;5.20;99.90
8820;DHT22;4446;50.876;4.736;2023-12-20T07:07:15;5.20;99.90
8820;DHT22;4446;50.876;4.736;2023-12-20T07:09:42;5.10;99.90
8820;DHT22;4446;50.876;4.736;2023-12-20T07:12:09;5.10;99.90
8820;DHT22;4446;50.876;4.736;2023-12-20T07:14:37;5.00;99.90
8820;DHT22;4446;50.876;4.736;2023-12-20T07:17:04;5.00;99.90
8820;DHT22;4446;50.876;4.736;2023-12-20T07:19:33;5.10;99.90
8820;DHT22;4446;50.876;4.736;2023-12-20T07:22:00;4.90;99.90
8820;DHT22;4446;50.876;4.736;2023-12-20T07:24:27;4.90;99.90
8820;DHT22;4446;50.876;4.736;2023-12-20T07:26:54;4.80;99.90
8820;DHT22;4446;50.876;4.736;2023-12-20T07:29:21;4.90;99.90
8820;DHT22;4446;50.876;4.736;2023-12-20T07:31:49;5.00;99.90
8820;DHT22;4446;50.876;4.736;2023-12-20T07:34:17;5.00;99.90
8820;DHT22;4446;50.876;4.736;2023-12-20T07:36:44;5.00;99.90
8820;DHT22;4446;50.876;4.736;2023-12-20T07:39:11;5.10;99.90
8820;DHT22;4446;50.876;4.736;2023-12-20T07:41:38;5.00;99.90
8820;DHT22;4446;50.876;4.736;2023-12-20T07:44:07;5.00;99.90
8820;DHT22;4446;50.876;4.736;2023-12-20T07:46:34;4.90;99.90
8820;DHT22;4446;50.876;4.736;2023-12-20T07:49:02;4.90;99.90
8820;DHT22;4446;50.876;4.736;2023-12-20T07:51:29;4.90;99.90
8820;DHT22;4446;50.876;4.736;2023-12-20T07:53:56;4.90;99.90
8820;DHT22;4446;50.876;4.736;2023-12-20T07:56:23;4.90;99.90
8820;DHT22;4446;50.876;4.736;2023-12-20T07:58:50;4.90;99.90
8820;DHT22;4446;50.876;4.736;2023-12-20T08:01:17;4.90;99.90
8820;DHT22;4446;50.876;4.736;2023-12-20T08:03:45;4.90;99.90
8820;DHT22;4446;50.876;4.736;2023-12-20T08:06:16;5.00;99.90
8820;DHT22;4446;50.876;4.736;2023-12-20T08:08:44;4.90;99.90
8820;DHT22;4446;50.876;4.736;2023-12-20T08:11:11;5.00;99.90
8820;DHT22;4446;50.876;4.736;2023-12-20T08:13:38;4.90;99.90
8820;DHT22;4446;50.876;4.736;2023-12-20T08:16:05;4.90;99.90
8820;DHT22;4446;50.876;4.736;2023-12-20T08:18:32;4.90;99.90
8820;DHT22;4446;50.876;4.736;2023-12-20T08:21:00;4.90;99.90
8820;DHT22;4446;50.876;4.736;2023-12-20T08:23:28;4.90;99.90
8820;DHT22;4446;50.876;4.736;2023-12-20T08:25:55;4.90;99.90
8820;DHT22;4446;50.876;4.736;2023-12-20T08:28:22;4.90;99.90
8820;DHT22;4446;50.876;4.736;2023-12-20T08:30:49;4.90;99.90
8820;DHT22;4446;50.876;4.736;2023-12-20T08:33:19;4.90;99.90
8820;DHT22;4446;50.876;4.736;2023-12-20T08:35:46;4.90;99.90
8820;DHT22;4446;50.876;4.736;2023-12-20T08:38:13;5.00;99.90
8820;DHT22;4446;50.876;4.736;2023-12-20T08:40:41;5.10;99.90
8820;DHT22;4446;50.876;4.736;2023-12-20T08:43:08;5.20;99.90
8820;DHT22;4446;50.876;4.736;2023-12-20T08:45:36;5.40;99.90
8820;DHT22;4446;50.876;4.736;2023-12-20T08:48:03;5.50;99.90
8820;DHT22;4446;50.876;4.736;2023-12-20T08:50:30;5.60;99.90
8820;DHT22;4446;50.876;4.736;2023-12-20T08:52:57;5.70;99.90
8820;DHT22;4446;50.876;4.736;2023-12-20T08:55:24;5.70;99.90
8820;DHT22;4446;50.876;4.736;2023-12-20T08:57:53;5.70;99.90
8820;DHT22;4446;50.876;4.736;2023-12-20T09:00:21;5.80;99.90
8820;DHT22;4446;50.876;4.736;2023-12-20T09:02:50;5.80;99.90
8820;DHT22;4446;50.876;4.736;2023-12-20T09:05:17;5.80;99.90
8820;DHT22;4446;50.876;4.736;2023-12-20T09:07:44;5.80;99.90
8820;DHT22;4446;50.876;4.736;2023-12-20T09:10:11;5.80;99.90
8820;DHT22;4446;50.876;4.736;2023-12-20T09:12:38;5.80;99.90
8820;DHT22;4446;50.876;4.736;2023-12-20T09:15:08;5.80;99.90
8820;DHT22;4446;50.876;4.736;2023-12-20T09:17:35;5.80;99.90
8820;DHT22;4446;50.876;4.736;2023-12-20T09:20:03;5.80;99.90
8820;DHT22;4446;50.876;4.736;2023-12-20T09:22:32;5.70;99.90
8820;DHT22;4446;50.876;4.736;2023-12-20T09:24:59;5.70;99.90
8820;DHT22;4446;50.876;4.736;2023-12-20T09:27:27;5.80;99.90
8820;DHT22;4446;50.876;4.736;2023-12-20T09:29:54;5.70;99.90
8820;DHT22;4446;50.876;4.736;2023-12-20T09:32:23;5.80;99.90
8820;DHT22;4446;50.876;4.736;2023-12-20T09:34:50;5.70;99.90
8820;DHT22;4446;50.876;4.736;2023-12-20T09:37:17;5.70;99.90
8820;DHT22;4446;50.876;4.736;2023-12-20T09:39:44;5.70;99.90
8820;DHT22;4446;50.876;4.736;2023-12-20T09:42:12;5.80;99.90
8820;DHT22;4446;50.876;4.736;2023-12-20T09:44:44;5.70;99.90
8820;DHT22;4446;50.876;4.736;2023-12-20T09:47:11;5.80;99.90
8820;DHT22;4446;50.876;4.736;2023-12-20T09:49:40;5.80;99.90
8820;DHT22;4446;50.876;4.736;2023-12-20T09:52:09;5.90;99.90
8820;DHT22;4446;50.876;4.736;2023-12-20T09:54:37;6.00;99.90
8820;DHT22;4446;50.876;4.736;2023-12-20T09:57:05;6.00;99.90
8820;DHT22;4446;50.876;4.736;2023-12-20T09:59:32;6.10;99.90
8820;DHT22;4446;50.876;4.736;2023-12-20T10:02:01;6.20;99.90
8820;DHT22;4446;50.876;4.736;2023-12-20T10:04:32;6.30;99.90
8820;DHT22;4446;50.876;4.736;2023-12-20T10:07:03;6.40;99.90
8820;DHT22;4446;50.876;4.736;2023-12-20T10:09:31;6.50;99.90
8820;DHT22;4446;50.876;4.736;2023-12-20T10:11:59;6.50;99.90
8820;DHT22;4446;50.876;4.736;2023-12-20T10:14:26;6.60;99.90
8820;DHT22;4446;50.876;4.736;2023-12-20T10:16:53;6.60;99.90
8820;DHT22;4446;50.876;4.736;2023-12-20T10:19:21;6.80;99.90
8820;DHT22;4446;50.876;4.736;2023-12-20T10:21:48;6.80;99.90
8820;DHT22;4446;50.876;4.736;2023-12-20T10:24:18;6.90;99.90
8820;DHT22;4446;50.876;4.736;2023-12-20T10:26:45;7.00;99.90
8820;DHT22;4446;50.876;4.736;2023-12-20T10:29:12;7.10;99.90
8820;DHT22;4446;50.876;4.736;2023-12-20T10:31:39;7.10;99.90
8820;DHT22;4446;50.876;4.736;2023-12-20T10:34:08;7.00;99.90
8820;DHT22;4446;50.876;4.736;2023-12-20T10:36:35;7.10;99.90
8820;DHT22;4446;50.876;4.736;2023-12-20T10:39:02;7.10;99.90
8820;DHT22;4446;50.876;4.736;2023-12-20T10:41:33;7.20;99.90
8820;DHT22;4446;50.876;4.736;2023-12-20T10:44:04;7.20;99.90
8820;DHT22;4446;50.876;4.736;2023-12-20T10:46:39;7.20;99.90
8820;DHT22;4446;50.876;4.736;2023-12-20T10:49:15;7.30;99.90
8820;DHT22;4446;50.876;4.736;2023-12-20T10:51:43;7.30;99.90
8820;DHT22;4446;50.876;4.736;2023-12-20T10:54:11;7.40;99.90
8820;DHT22;4446;50.876;4.736;2023-12-20T10:56:55;7.40;99.90
8820;DHT22;4446;50.876;4.736;2023-12-20T10:59:28;7.40;99.90
8820;DHT22;4446;50.876;4.736;2023-12-20T11:01:57;7.50;99.90
8820;DHT22;4446;50.876;4.736;2023-12-20T11:04:31;7.50;99.90
8820;DHT22;4446;50.876;4.736;2023-12-20T11:07:10;7.50;99.90
8820;DHT22;4446;50.876;4.736;2023-12-20T11:09:47;7.60;99.90
8820;DHT22;4446;50.876;4.736;2023-12-20T11:12:23;7.60;99.90
8820;DHT22;4446;50.876;4.736;2023-12-20T11:14:54;7.70;99.90
8820;DHT22;4446;50.876;4.736;2023-12-20T11:17:23;7.60;99.90
8820;DHT22;4446;50.876;4.736;2023-12-20T11:20:05;7.70;99.90
8820;DHT22;4446;50.876;4.736;2023-12-20T11:22:32;7.70;99.90
8820;DHT22;4446;50.876;4.736;2023-12-20T11:25:04;7.70;99.90
8820;DHT22;4446;50.876;4.736;2023-12-20T11:27:33;7.70;99.90
8820;DHT22;4446;50.876;4.736;2023-12-20T11:30:03;7.80;99.90
8820;DHT22;4446;50.876;4.736;2023-12-20T11:32:34;7.80;99.90
8820;DHT22;4446;50.876;4.736;2023-12-20T11:35:16;7.80;99.90
8820;DHT22;4446;50.876;4.736;2023-12-20T11:37:43;7.80;99.90
8820;DHT22;4446;50.876;4.736;2023-12-20T11:40:14;7.70;99.90
8820;DHT22;4446;50.876;4.736;2023-12-20T11:42:44;7.70;99.90
8820;DHT22;4446;50.876;4.736;2023-12-20T11:45:14;7.70;99.90
8820;DHT22;4446;50.876;4.736;2023-12-20T11:47:43;7.70;99.90
8820;DHT22;4446;50.876;4.736;2023-12-20T11:50:11;7.70;99.90
8820;DHT22;4446;50.876;4.736;2023-12-20T11:52:38;7.70;99.90
8820;DHT22;4446;50.876;4.736;2023-12-20T11:55:06;7.70;99.90
8820;DHT22;4446;50.876;4.736;2023-12-20T11:57:33;7.60;99.90
8820;DHT22;4446;50.876;4.736;2023-12-20T12:00:02;7.60;99.90
8820;DHT22;4446;50.876;4.736;2023-12-20T12:02:30;7.70;99.90
8820;DHT22;4446;50.876;4.736;2023-12-20T12:04:57;7.70;99.90
8820;DHT22;4446;50.876;4.736;2023-12-20T12:07:25;7.80;99.90
8820;DHT22;4446;50.876;4.736;2023-12-20T12:09:52;7.80;99.90
8820;DHT22;4446;50.876;4.736;2023-12-20T12:12:20;7.70;99.90
8820;DHT22;4446;50.876;4.736;2023-12-20T12:14:48;7.70;99.90
8820;DHT22;4446;50.876;4.736;2023-12-20T12:17:17;7.60;99.90
8820;DHT22;4446;50.876;4.736;2023-12-20T12:19:44;7.60;99.90
8820;DHT22;4446;50.876;4.736;2023-12-20T12:22:13;7.60;99.90
8820;DHT22;4446;50.876;4.736;2023-12-20T12:24:41;7.60;99.90
8820;DHT22;4446;50.876;4.736;2023-12-20T12:27:09;7.60;99.90
8820;DHT22;4446;50.876;4.736;2023-12-20T12:29:37;7.60;99.90
8820;DHT22;4446;50.876;4.736;2023-12-20T12:32:05;7.70;99.90
8820;DHT22;4446;50.876;4.736;2023-12-20T12:34:35;7.60;99.90
8820;DHT22;4446;50.876;4.736;2023-12-20T12:37:04;7.60;99.90
8820;DHT22;4446;50.876;4.736;2023-12-20T12:39:31;7.60;99.90
8820;DHT22;4446;50.876;4.736;2023-12-20T12:41:58;7.50;99.90
8820;DHT22;4446;50.876;4.736;2023-12-20T12:44:26;7.50;99.90
8820;DHT22;4446;50.876;4.736;2023-12-20T12:46:53;7.60;99.90
8820;DHT22;4446;50.876;4.736;2023-12-20T12:49:21;7.50;99.90
8820;DHT22;4446;50.876;4.736;2023-12-20T12:51:50;7.50;99.90
8820;DHT22;4446;50.876;4.736;2023-12-20T12:54:18;7.60;99.90
8820;DHT22;4446;50.876;4.736;2023-12-20T12:56:46;7.60;99.90
8820;DHT22;4446;50.876;4.736;2023-12-20T12:59:13;7.50;99.90
8820;DHT22;4446;50.876;4.736;2023-12-20T13:01:40;7.60;99.90
8820;DHT22;4446;50.876;4.736;2023-12-20T13:04:11;7.60;99.90
8820;DHT22;4446;50.876;4.736;2023-12-20T13:06:44;7.60;99.90
8820;DHT22;4446;50.876;4.736;2023-12-20T13:09:15;7.60;99.90
8820;DHT22;4446;50.876;4.736;2023-12-20T13:11:42;7.60;99.90
8820;DHT22;4446;50.876;4.736;2023-12-20T13:14:09;7.60;99.90
8820;DHT22;4446;50.876;4.736;2023-12-20T13:16:42;7.50;99.90
8820;DHT22;4446;50.876;4.736;2023-12-20T13:19:13;7.50;99.90
8820;DHT22;4446;50.876;4.736;2023-12-20T13:21:41;7.50;99.90
8820;DHT22;4446;50.876;4.736;2023-12-20T13:24:24;7.50;99.90
8820;DHT22;4446;50.876;4.736;2023-12-20T13:26:54;7.60;99.90
8820;DHT22;4446;50.876;4.736;2023-12-20T13:29:26;7.60;99.90
8820;DHT22;4446;50.876;4.736;2023-12-20T13:31:58;7.60;99.90
8820;DHT22;4446;50.876;4.736;2023-12-20T13:34:37;7.70;99.90
8820;DHT22;4446;50.876;4.736;2023-12-20T13:37:08;7.60;99.90
8820;DHT22;4446;50.876;4.736;2023-12-20T13:39:49;7.70;99.90
8820;DHT22;4446;50.876;4.736;2023-12-20T13:42:27;7.80;99.90
8820;DHT22;4446;50.876;4.736;2023-12-20T13:45:02;7.80;99.90
8820;DHT22;4446;50.876;4.736;2023-12-20T13:47:32;7.80;99.90
8820;DHT22;4446;50.876;4.736;2023-12-20T13:50:05;7.80;99.90
8820;DHT22;4446;50.876;4.736;2023-12-20T13:52:39;7.70;99.90
8820;DHT22;4446;50.876;4.736;2023-12-20T13:55:15;7.70;99.90
8820;DHT22;4446;50.876;4.736;2023-12-20T13:57:54;7.70;99.90
8820;DHT22;4446;50.876;4.736;2023-12-20T14:00:34;7.60;99.90
8820;DHT22;4446;50.876;4.736;2023-12-20T14:03:07;7.70;99.90
8820;DHT22;4446;50.876;4.736;2023-12-20T14:05:38;7.70;99.90
8820;DHT22;4446;50.876;4.736;2023-12-20T14:08:21;7.70;99.90
8820;DHT22;4446;50.876;4.736;2023-12-20T14:11:02;7.70;99.90
8820;DHT22;4446;50.876;4.736;2023-12-20T14:13:48;7.70;99.90
8820;DHT22;4446;50.876;4.736;2023-12-20T14:16:24;7.70;99.90
8820;DHT22;4446;50.876;4.736;2023-12-20T14:18:53;7.70;99.90
8820;DHT22;4446;50.876;4.736;2023-12-20T14:21:23;7.70;99.90
8820;DHT22;4446;50.876;4.736;2023-12-20T14:23:50;7.70;99.90
8820;DHT22;4446;50.876;4.736;2023-12-20T16:57:22;8.40;99.90
8820;DHT22;4446;50.876;4.736;2023-12-20T16:59:49;8.40;99.90
8820;DHT22;4446;50.876;4.736;2023-12-20T17:02:16;8.40;99.90
8820;DHT22;4446;50.876;4.736;2023-12-20T17:04:43;8.50;99.90
8820;DHT22;4446;50.876;4.736;2023-12-20T17:07:10;8.40;99.90
8820;DHT22;4446;50.876;4.736;2023-12-20T17:09:37;8.40;99.90
8820;DHT22;4446;50.876;4.736;2023-12-20T17:12:06;8.40;99.90
8820;DHT22;4446;50.876;4.736;2023-12-20T17:14:34;8.40;99.90
8820;DHT22;4446;50.876;4.736;2023-12-20T17:17:01;8.40;99.90
8820;DHT22;4446;50.876;4.736;2023-12-20T17:19:29;8.40;99.90
8820;DHT22;4446;50.876;4.736;2023-12-20T17:21:57;8.40;99.90
8820;DHT22;4446;50.876;4.736;2023-12-20T17:24:24;8.40;99.90
8820;DHT22;4446;50.876;4.736;2023-12-20T17:26:51;8.40;99.90
8820;DHT22;4446;50.876;4.736;2023-12-20T17:29:18;8.40;99.90
8820;DHT22;4446;50.876;4.736;2023-12-20T17:31:47;8.50;99.90
8820;DHT22;4446;50.876;4.736;2023-12-20T17:34:14;8.40;99.90
8820;DHT22;4446;50.876;4.736;2023-12-20T17:36:41;8.40;99.90
8820;DHT22;4446;50.876;4.736;2023-12-20T17:39:10;8.40;99.90
8820;DHT22;4446;50.876;4.736;2023-12-20T17:41:37;8.40;99.90
8820;DHT22;4446;50.876;4.736;2023-12-20T17:44:04;8.40;99.90
8820;DHT22;4446;50.876;4.736;2023-12-20T17:46:31;8.40;99.90
8820;DHT22;4446;50.876;4.736;2023-12-20T17:49:00;8.40;99.90
8820;DHT22;4446;50.876;4.736;2023-12-20T17:51:28;8.50;99.90
8820;DHT22;4446;50.876;4.736;2023-12-20T17:53:55;8.50;99.90
8820;DHT22;4446;50.876;4.736;2023-12-20T17:56:23;8.50;99.90
8820;DHT22;4446;50.876;4.736;2023-12-20T17:58:50;8.50;99.90
8820;DHT22;4446;50.876;4.736;2023-12-20T18:01:19;8.50;99.90
8820;DHT22;4446;50.876;4.736;2023-12-20T18:03:47;8.50;99.90
8820;DHT22;4446;50.876;4.736;2023-12-20T18:06:15;8.50;99.90
8820;DHT22;4446;50.876;4.736;2023-12-20T18:08:42;8.50;99.90
8820;DHT22;4446;50.876;4.736;2023-12-20T18:11:10;8.50;99.90
8820;DHT22;4446;50.876;4.736;2023-12-20T18:13:37;8.60;99.90
8820;DHT22;4446;50.876;4.736;2023-12-20T18:16:04;8.60;99.90
8820;DHT22;4446;50.876;4.736;2023-12-20T18:18:35;8.60;99.90
8820;DHT22;4446;50.876;4.736;2023-12-20T18:21:02;8.50;99.90
8820;DHT22;4446;50.876;4.736;2023-12-20T18:23:30;8.60;99.90
8820;DHT22;4446;50.876;4.736;2023-12-20T18:25:58;8.50;99.90
8820;DHT22;4446;50.876;4.736;2023-12-20T18:28:25;8.50;99.90
8820;DHT22;4446;50.876;4.736;2023-12-20T18:30:52;8.50;99.90
8820;DHT22;4446;50.876;4.736;2023-12-20T18:33:19;8.60;99.90
8820;DHT22;4446;50.876;4.736;2023-12-20T18:35:46;8.50;99.90
8820;DHT22;4446;50.876;4.736;2023-12-20T18:38:13;8.60;99.90
8820;DHT22;4446;50.876;4.736;2023-12-20T18:40:42;8.70;99.90
8820;DHT22;4446;50.876;4.736;2023-12-20T18:43:13;8.70;99.90
8820;DHT22;4446;50.876;4.736;2023-12-20T18:45:40;8.80;99.90
8820;DHT22;4446;50.876;4.736;2023-12-20T18:48:08;8.70;99.90
8820;DHT22;4446;50.876;4.736;2023-12-20T18:50:35;8.70;99.90
8820;DHT22;4446;50.876;4.736;2023-12-20T18:53:02;8.70;99.90
8820;DHT22;4446;50.876;4.736;2023-12-20T18:55:29;8.80;99.90